RYR8DY LPFR-EICK
Flight info
| Callsign | RYR8DY |
|---|---|
| Flight time | N/A |
| Altitude | 36000 |
| Route | PINEK DCT KORUL DCT TULTA/M076F360 DCT MAPAG DCT SOVIX SOVIX1R |
| Aircraft | B738/M-SDE2E3FGHIRWXY/LB1 |
Departure
| Time | N/A |
|---|---|
| Airport | Faro - Gago Coutinho International Airport (LPFR) |
Arrival
| Time | 2026-04-30 19:41 |
|---|---|
| Airport | Cork International Airport (EICK) |
| Time | Latitude | Longitude | Altitude | Speed | Heading |
|---|---|---|---|---|---|
| 2026-04-30 17:39 | 38.03194 | -8.19945 | 26908 ft | 436 kts | 351° |
| 2026-04-30 17:41 | 38.27950 | -8.21896 | 29569 ft | 456 kts | 351° |
| 2026-04-30 17:42 | 38.34317 | -8.22464 | 30169 ft | 460 kts | 350° |
| 2026-04-30 17:42 | 38.43904 | -8.23464 | 30941 ft | 465 kts | 351° |
| 2026-04-30 17:43 | 38.50357 | -8.24130 | 31624 ft | 463 kts | 351° |
| 2026-04-30 17:44 | 38.59944 | -8.25106 | 32561 ft | 462 kts | 351° |
| 2026-04-30 17:44 | 38.69551 | -8.26084 | 33493 ft | 461 kts | 352° |
| 2026-04-30 17:46 | 38.85527 | -8.27717 | 34785 ft | 459 kts | 352° |
| 2026-04-30 17:47 | 38.98229 | -8.29021 | 35656 ft | 459 kts | 352° |
| 2026-04-30 17:48 | 39.11008 | -8.30340 | 36073 ft | 461 kts | 352° |
| 2026-04-30 17:48 | 39.20531 | -8.31321 | 36072 ft | 456 kts | 352° |
| 2026-04-30 17:50 | 39.45703 | -8.33938 | 36085 ft | 455 kts | 353° |
| 2026-04-30 17:52 | 39.64747 | -8.35929 | 36091 ft | 462 kts | 353° |
| 2026-04-30 17:54 | 39.93799 | -8.38986 | 36100 ft | 466 kts | 353° |
| 2026-04-30 17:56 | 40.19545 | -8.41717 | 36103 ft | 462 kts | 353° |
| 2026-04-30 17:58 | 40.38749 | -8.43769 | 36108 ft | 462 kts | 353° |
| 2026-04-30 18:00 | 40.64414 | -8.46529 | 36098 ft | 464 kts | 353° |
| 2026-04-30 18:01 | 40.80585 | -8.48279 | 36111 ft | 468 kts | 353° |
| 2026-04-30 18:02 | 41.00143 | -8.50407 | 36108 ft | 471 kts | 353° |
| 2026-04-30 18:04 | 41.19691 | -8.52546 | 36131 ft | 470 kts | 353° |
| 2026-04-30 18:06 | 41.45674 | -8.55410 | 36118 ft | 468 kts | 353° |
| 2026-04-30 18:08 | 41.67251 | -8.56008 | 36115 ft | 469 kts | 18° |
| 2026-04-30 18:10 | 41.91757 | -8.43778 | 36116 ft | 471 kts | 20° |
| 2026-04-30 18:11 | 42.13313 | -8.33091 | 36124 ft | 473 kts | 20° |
| 2026-04-30 18:13 | 42.28752 | -8.25382 | 36118 ft | 474 kts | 20° |
| 2026-04-30 18:14 | 42.44204 | -8.17628 | 36125 ft | 473 kts | 20° |
| 2026-04-30 18:15 | 42.62659 | -8.08312 | 36115 ft | 472 kts | 20° |
| 2026-04-30 18:16 | 42.74960 | -8.02070 | 36120 ft | 471 kts | 20° |
| 2026-04-30 18:17 | 42.81105 | -7.98942 | 36117 ft | 471 kts | 20° |
| 2026-04-30 18:18 | 42.90266 | -7.94266 | 36117 ft | 470 kts | 20° |
| 2026-04-30 18:18 | 42.96401 | -7.91126 | 36114 ft | 470 kts | 20° |
| 2026-04-30 18:19 | 43.02537 | -7.87979 | 36117 ft | 470 kts | 20° |
| 2026-04-30 18:19 | 43.08674 | -7.84825 | 36117 ft | 470 kts | 20° |
| 2026-04-30 18:20 | 43.14766 | -7.81687 | 36125 ft | 470 kts | 20° |
| 2026-04-30 18:20 | 43.20899 | -7.78521 | 36122 ft | 471 kts | 20° |
| 2026-04-30 18:21 | 43.27038 | -7.75346 | 36112 ft | 471 kts | 20° |
| 2026-04-30 18:21 | 43.33134 | -7.72186 | 36117 ft | 471 kts | 20° |
| 2026-04-30 18:22 | 43.39266 | -7.69000 | 36117 ft | 471 kts | 20° |
| 2026-04-30 18:22 | 43.48455 | -7.64213 | 36121 ft | 471 kts | 20° |
| 2026-04-30 18:23 | 43.54596 | -7.61005 | 36116 ft | 472 kts | 20° |
| 2026-04-30 18:23 | 43.60734 | -7.57792 | 36119 ft | 471 kts | 20° |
| 2026-04-30 18:24 | 43.69940 | -7.52960 | 36116 ft | 471 kts | 20° |
| 2026-04-30 18:25 | 43.76063 | -7.49737 | 36124 ft | 471 kts | 20° |
| 2026-04-30 18:25 | 43.85217 | -7.44905 | 36121 ft | 470 kts | 20° |
| 2026-04-30 18:26 | 43.94397 | -7.40044 | 36119 ft | 470 kts | 20° |
| 2026-04-30 18:27 | 44.03563 | -7.35174 | 36121 ft | 469 kts | 20° |
| 2026-04-30 18:28 | 44.12667 | -7.30321 | 36124 ft | 469 kts | 20° |
| 2026-04-30 18:28 | 44.21810 | -7.25431 | 36118 ft | 468 kts | 20° |
| 2026-04-30 18:29 | 44.33981 | -7.18896 | 36119 ft | 468 kts | 20° |
| 2026-04-30 18:30 | 44.46128 | -7.12345 | 36124 ft | 468 kts | 20° |
| 2026-04-30 18:31 | 44.55211 | -7.07427 | 36120 ft | 468 kts | 20° |
| 2026-04-30 18:32 | 44.64320 | -7.02477 | 36120 ft | 468 kts | 20° |
| 2026-04-30 18:33 | 44.73423 | -6.97514 | 36122 ft | 467 kts | 20° |
| 2026-04-30 18:33 | 44.82649 | -6.93194 | 36120 ft | 463 kts | 5° |
| 2026-04-30 18:34 | 44.92097 | -6.94108 | 36123 ft | 455 kts | 345° |
| 2026-04-30 18:35 | 44.98308 | -6.95887 | 36119 ft | 456 kts | 345° |
| 2026-04-30 18:35 | 45.04535 | -6.97652 | 36122 ft | 456 kts | 345° |
| 2026-04-30 18:36 | 45.13900 | -7.00225 | 36116 ft | 457 kts | 346° |
| 2026-04-30 18:37 | 45.23282 | -7.02778 | 36122 ft | 458 kts | 346° |
| 2026-04-30 18:37 | 45.29547 | -7.04488 | 36118 ft | 458 kts | 346° |
| 2026-04-30 18:38 | 45.35823 | -7.06206 | 36117 ft | 459 kts | 346° |
| 2026-04-30 18:38 | 45.42057 | -7.07917 | 36107 ft | 459 kts | 346° |
| 2026-04-30 18:39 | 45.48346 | -7.09647 | 36113 ft | 459 kts | 346° |
| 2026-04-30 18:39 | 45.54628 | -7.11380 | 36114 ft | 459 kts | 346° |
| 2026-04-30 18:40 | 45.60873 | -7.13106 | 36111 ft | 459 kts | 346° |
| 2026-04-30 18:40 | 45.67159 | -7.14847 | 36112 ft | 460 kts | 346° |
| 2026-04-30 18:41 | 45.73446 | -7.16592 | 36115 ft | 460 kts | 346° |
| 2026-04-30 18:41 | 45.79725 | -7.18339 | 36113 ft | 460 kts | 346° |
| 2026-04-30 18:42 | 45.86007 | -7.20091 | 36110 ft | 460 kts | 346° |
| 2026-04-30 18:42 | 45.95426 | -7.22726 | 36105 ft | 459 kts | 345° |
| 2026-04-30 18:45 | 46.29932 | -7.32457 | 36101 ft | 460 kts | 345° |
| 2026-04-30 18:46 | 46.36221 | -7.34243 | 36102 ft | 461 kts | 345° |
| 2026-04-30 18:46 | 46.42474 | -7.36024 | 36101 ft | 461 kts | 345° |
| 2026-04-30 18:47 | 46.48768 | -7.37821 | 36100 ft | 461 kts | 345° |
| 2026-04-30 18:47 | 46.55087 | -7.39629 | 36098 ft | 462 kts | 345° |
| 2026-04-30 18:48 | 46.61406 | -7.41442 | 36099 ft | 462 kts | 345° |
| 2026-04-30 18:48 | 46.67724 | -7.43258 | 36094 ft | 463 kts | 345° |
| 2026-04-30 18:49 | 46.74013 | -7.45070 | 36096 ft | 463 kts | 345° |
| 2026-04-30 18:49 | 46.80332 | -7.46896 | 36095 ft | 463 kts | 345° |
| 2026-04-30 18:50 | 46.86665 | -7.48730 | 36094 ft | 464 kts | 345° |
| 2026-04-30 18:50 | 46.92992 | -7.50566 | 36090 ft | 464 kts | 345° |
| 2026-04-30 18:51 | 46.99345 | -7.52415 | 36092 ft | 464 kts | 345° |
| 2026-04-30 18:51 | 47.05695 | -7.54267 | 36091 ft | 465 kts | 345° |
| 2026-04-30 18:52 | 47.10972 | -7.55809 | 36087 ft | 465 kts | 345° |
| 2026-04-30 18:52 | 47.18360 | -7.57974 | 36088 ft | 465 kts | 345° |
| 2026-04-30 18:53 | 47.24716 | -7.59842 | 36089 ft | 466 kts | 345° |
| 2026-04-30 18:53 | 47.30053 | -7.61413 | 36087 ft | 466 kts | 345° |
| 2026-04-30 18:54 | 47.36375 | -7.63279 | 36084 ft | 466 kts | 345° |
| 2026-04-30 18:54 | 47.42747 | -7.65164 | 36083 ft | 467 kts | 345° |
| 2026-04-30 18:55 | 47.49123 | -7.67056 | 36084 ft | 467 kts | 345° |
| 2026-04-30 18:55 | 47.58689 | -7.69902 | 36080 ft | 468 kts | 345° |
| 2026-04-30 18:56 | 47.68242 | -7.72755 | 36076 ft | 468 kts | 345° |
| 2026-04-30 18:57 | 47.77837 | -7.75631 | 36073 ft | 469 kts | 345° |
| 2026-04-30 18:57 | 47.84245 | -7.77557 | 36073 ft | 469 kts | 345° |
| 2026-04-30 18:58 | 47.93861 | -7.80458 | 36069 ft | 470 kts | 345° |
| 2026-04-30 18:59 | 48.03451 | -7.83362 | 36071 ft | 470 kts | 345° |
| 2026-04-30 19:00 | 48.16302 | -7.87270 | 36070 ft | 471 kts | 345° |
| 2026-04-30 19:01 | 48.29141 | -7.91195 | 36065 ft | 472 kts | 345° |
| 2026-04-30 19:02 | 48.38793 | -7.94159 | 36063 ft | 473 kts | 345° |
| 2026-04-30 19:03 | 48.51723 | -7.98148 | 36062 ft | 474 kts | 345° |
| 2026-04-30 19:04 | 48.64784 | -8.01588 | 36061 ft | 478 kts | 350° |
| 2026-04-30 19:05 | 48.77971 | -8.04009 | 36054 ft | 479 kts | 350° |
| 2026-04-30 19:06 | 48.91194 | -8.06610 | 36055 ft | 479 kts | 349° |
| 2026-04-30 19:06 | 49.01090 | -8.08588 | 36050 ft | 480 kts | 349° |
| 2026-04-30 19:07 | 49.11037 | -8.10579 | 36048 ft | 480 kts | 350° |
| 2026-04-30 19:08 | 49.24330 | -8.13252 | 36042 ft | 481 kts | 350° |
| 2026-04-30 19:09 | 49.34243 | -8.15254 | 36045 ft | 481 kts | 350° |
| 2026-04-30 19:09 | 49.40878 | -8.16599 | 36040 ft | 481 kts | 350° |
| 2026-04-30 19:10 | 49.54155 | -8.19302 | 36037 ft | 481 kts | 350° |
| 2026-04-30 19:11 | 49.64056 | -8.21326 | 36026 ft | 478 kts | 350° |
| 2026-04-30 19:12 | 49.70601 | -8.22668 | 36028 ft | 471 kts | 350° |
| 2026-04-30 19:12 | 49.77108 | -8.24007 | 35778 ft | 472 kts | 351° |
| 2026-04-30 19:13 | 49.83576 | -8.25342 | 35045 ft | 464 kts | 351° |
| 2026-04-30 19:13 | 49.89949 | -8.26660 | 34278 ft | 459 kts | 351° |
| 2026-04-30 19:13 | 49.93108 | -8.27315 | 33838 ft | 458 kts | 351° |
| 2026-04-30 19:14 | 49.96220 | -8.27961 | 33420 ft | 455 kts | 351° |
| 2026-04-30 19:14 | 49.99356 | -8.28612 | 33015 ft | 453 kts | 351° |
| 2026-04-30 19:14 | 50.02477 | -8.29262 | 32623 ft | 450 kts | 351° |
| 2026-04-30 19:14 | 50.05579 | -8.29908 | 32243 ft | 448 kts | 351° |
| 2026-04-30 19:15 | 50.08656 | -8.30550 | 31855 ft | 445 kts | 351° |
| 2026-04-30 19:15 | 50.14776 | -8.31830 | 31109 ft | 441 kts | 351° |
| 2026-04-30 19:15 | 50.17816 | -8.32467 | 30736 ft | 440 kts | 351° |
| 2026-04-30 19:16 | 50.20847 | -8.33102 | 30359 ft | 438 kts | 351° |
| 2026-04-30 19:16 | 50.23866 | -8.33737 | 29961 ft | 437 kts | 351° |
| 2026-04-30 19:16 | 50.29865 | -8.34999 | 29125 ft | 432 kts | 351° |
| 2026-04-30 19:17 | 50.32805 | -8.35619 | 28730 ft | 430 kts | 351° |
| 2026-04-30 19:17 | 50.38704 | -8.36865 | 27957 ft | 425 kts | 351° |
| 2026-04-30 19:17 | 50.41626 | -8.37483 | 27572 ft | 423 kts | 351° |
| 2026-04-30 19:18 | 50.46466 | -8.38509 | 26943 ft | 420 kts | 351° |
| 2026-04-30 19:18 | 50.50328 | -8.39329 | 26441 ft | 417 kts | 351° |
| 2026-04-30 19:18 | 50.53202 | -8.39941 | 26067 ft | 416 kts | 351° |
| 2026-04-30 19:19 | 50.56071 | -8.40551 | 25671 ft | 415 kts | 352° |
| 2026-04-30 19:19 | 50.58934 | -8.41162 | 25295 ft | 414 kts | 352° |
| 2026-04-30 19:19 | 50.64600 | -8.42372 | 24529 ft | 413 kts | 352° |
| 2026-04-30 19:20 | 50.67454 | -8.42983 | 24145 ft | 413 kts | 352° |
| 2026-04-30 19:20 | 50.70304 | -8.43593 | 23764 ft | 412 kts | 352° |
| 2026-04-30 19:20 | 50.75994 | -8.44814 | 22935 ft | 410 kts | 352° |
| 2026-04-30 19:21 | 50.78820 | -8.45422 | 22545 ft | 408 kts | 352° |
| 2026-04-30 19:21 | 50.84414 | -8.46627 | 21792 ft | 404 kts | 352° |
| 2026-04-30 19:22 | 50.89968 | -8.47826 | 21054 ft | 400 kts | 352° |
| 2026-04-30 19:22 | 50.98150 | -8.49598 | 19953 ft | 395 kts | 352° |
| 2026-04-30 19:23 | 51.06374 | -8.51028 | 18654 ft | 396 kts | 355° |
| 2026-04-30 19:24 | 51.11818 | -8.51761 | 17883 ft | 392 kts | 355° |
| 2026-04-30 19:24 | 51.14529 | -8.52140 | 17498 ft | 389 kts | 355° |
| 2026-04-30 19:24 | 51.19879 | -8.52912 | 16774 ft | 382 kts | 355° |
| 2026-04-30 19:25 | 51.27740 | -8.54070 | 15732 ft | 373 kts | 355° |
| 2026-04-30 19:26 | 51.32876 | -8.54829 | 15050 ft | 367 kts | 356° |
| 2026-04-30 19:26 | 51.37902 | -8.55573 | 14387 ft | 362 kts | 356° |
| 2026-04-30 19:26 | 51.40412 | -8.55946 | 14049 ft | 360 kts | 356° |
| 2026-04-30 19:27 | 51.45321 | -8.57055 | 13462 ft | 352 kts | 347° |
| 2026-04-30 19:27 | 51.50021 | -8.59059 | 12802 ft | 346 kts | 345° |
| 2026-04-30 19:28 | 51.52336 | -8.60077 | 12474 ft | 344 kts | 345° |
| 2026-04-30 19:28 | 51.56934 | -8.62034 | 11820 ft | 339 kts | 346° |
| 2026-04-30 19:29 | 51.61445 | -8.63903 | 11178 ft | 336 kts | 346° |
| 2026-04-30 19:29 | 51.63709 | -8.64834 | 10853 ft | 334 kts | 346° |
| 2026-04-30 19:30 | 51.70370 | -8.67572 | 10046 ft | 316 kts | 346° |
| 2026-04-30 19:30 | 51.74526 | -8.69283 | 9410 ft | 300 kts | 346° |
| 2026-04-30 19:31 | 51.78464 | -8.70907 | 8850 ft | 284 kts | 346° |
| 2026-04-30 19:31 | 51.80366 | -8.71626 | 8621 ft | 277 kts | 348° |
| 2026-04-30 19:31 | 51.84151 | -8.72952 | 8100 ft | 282 kts | 348° |
| 2026-04-30 19:32 | 51.86104 | -8.73637 | 7827 ft | 289 kts | 348° |
| 2026-04-30 19:32 | 51.88057 | -8.74327 | 7537 ft | 285 kts | 348° |
| 2026-04-30 19:32 | 51.89974 | -8.75008 | 7248 ft | 279 kts | 348° |
| 2026-04-30 19:32 | 51.91844 | -8.75675 | 6996 ft | 271 kts | 348° |
| 2026-04-30 19:33 | 51.93644 | -8.76319 | 6770 ft | 260 kts | 348° |
| 2026-04-30 19:33 | 51.95349 | -8.76929 | 6562 ft | 246 kts | 348° |
| 2026-04-30 19:33 | 51.96979 | -8.77513 | 6333 ft | 235 kts | 348° |
| 2026-04-30 19:33 | 51.98568 | -8.77603 | 6074 ft | 226 kts | 18° |
| 2026-04-30 19:34 | 51.99884 | -8.76380 | 5855 ft | 216 kts | 49° |
| 2026-04-30 19:34 | 52.00695 | -8.74423 | 5635 ft | 205 kts | 70° |
| 2026-04-30 19:34 | 52.01687 | -8.70114 | 5115 ft | 204 kts | 75° |
| 2026-04-30 19:35 | 52.02170 | -8.67947 | 4845 ft | 203 kts | 74° |
| 2026-04-30 19:35 | 52.02646 | -8.65829 | 4573 ft | 195 kts | 74° |
| 2026-04-30 19:35 | 52.03063 | -8.63809 | 4326 ft | 183 kts | 86° |
| 2026-04-30 19:35 | 52.02736 | -8.61988 | 4286 ft | 177 kts | 134° |
| 2026-04-30 19:36 | 52.01748 | -8.60736 | 4073 ft | 182 kts | 144° |
| 2026-04-30 19:36 | 52.00720 | -8.59576 | 3846 ft | 176 kts | 149° |
| 2026-04-30 19:36 | 51.98695 | -8.57866 | 3426 ft | 157 kts | 155° |
| 2026-04-30 19:37 | 51.97679 | -8.57174 | 3204 ft | 158 kts | 158° |
| 2026-04-30 19:37 | 51.96675 | -8.56556 | 2992 ft | 149 kts | 159° |
| 2026-04-30 19:37 | 51.95742 | -8.55998 | 2806 ft | 140 kts | 159° |
| 2026-04-30 19:37 | 51.94836 | -8.55460 | 2604 ft | 137 kts | 159° |
| 2026-04-30 19:38 | 51.93948 | -8.54934 | 2426 ft | 138 kts | 158° |
| 2026-04-30 19:38 | 51.93051 | -8.54402 | 2242 ft | 137 kts | 158° |
| 2026-04-30 19:38 | 51.92155 | -8.53870 | 2056 ft | 136 kts | 158° |
| 2026-04-30 19:38 | 51.91555 | -8.53513 | 1925 ft | 136 kts | 158° |
| 2026-04-30 19:39 | 51.90676 | -8.52994 | 1744 ft | 137 kts | 158° |
| 2026-04-30 19:39 | 51.89788 | -8.52467 | 1560 ft | 137 kts | 157° |
| 2026-04-30 19:39 | 51.88892 | -8.51937 | 1346 ft | 137 kts | 156° |
| 2026-04-30 19:39 | 51.87986 | -8.51398 | 1165 ft | 140 kts | 156° |
| 2026-04-30 19:40 | 51.87068 | -8.50853 | 963 ft | 140 kts | 155° |
| 2026-04-30 19:40 | 51.86154 | -8.50320 | 804 ft | 138 kts | 156° |
| 2026-04-30 19:40 | 51.85267 | -8.49782 | 601 ft | 132 kts | 155° |
| 2026-04-30 19:40 | 51.84430 | -8.49289 | 481 ft | 119 kts | 158° |
| 2026-04-30 19:41 | 51.83797 | -8.48912 | 465 ft | 67 kts | 160° |
| 2026-04-30 19:41 | 51.83583 | -8.48786 | 466 ft | 12 kts | 158° |
| 2026-04-30 19:41 | 51.83540 | -8.48751 | 469 ft | 2 kts | 206° |
| 2026-04-30 19:41 | 51.83541 | -8.48761 | 469 ft | 1 kts | 279° |
| 2026-04-30 19:42 | 51.83547 | -8.48765 | 466 ft | 2 kts | 335° |
| 2026-04-30 19:42 | 51.83580 | -8.48786 | 467 ft | 8 kts | 338° |
| 2026-04-30 19:42 | 51.83652 | -8.48829 | 467 ft | 14 kts | 341° |
| 2026-04-30 19:42 | 51.83754 | -8.48887 | 465 ft | 18 kts | 340° |
| 2026-04-30 19:43 | 51.83878 | -8.48959 | 468 ft | 19 kts | 340° |
| 2026-04-30 19:43 | 51.84007 | -8.49036 | 472 ft | 21 kts | 339° |
| 2026-04-30 19:43 | 51.84139 | -8.49114 | 477 ft | 20 kts | 340° |
| 2026-04-30 19:44 | 51.84378 | -8.49254 | 479 ft | 17 kts | 339° |
| 2026-04-30 19:44 | 51.84485 | -8.49318 | 484 ft | 16 kts | 340° |
| 2026-04-30 19:44 | 51.84590 | -8.49381 | 485 ft | 17 kts | 339° |
| 2026-04-30 19:44 | 51.84716 | -8.49456 | 493 ft | 12 kts | 341° |
| 2026-04-30 19:45 | 51.84773 | -8.49432 | 485 ft | 8 kts | 55° |
| 2026-04-30 19:45 | 51.84794 | -8.49348 | 493 ft | 8 kts | 70° |
| 2026-04-30 19:45 | 51.84812 | -8.49267 | 495 ft | 8 kts | 68° |
| 2026-04-30 19:45 | 51.84855 | -8.49232 | 502 ft | 7 kts | 353° |
| 2026-04-30 19:46 | 51.84904 | -8.49257 | 502 ft | 7 kts | 342° |
| 2026-04-30 19:46 | 51.84945 | -8.49264 | 502 ft | 3 kts | 39° |
| 2026-04-30 19:46 | 51.84957 | -8.49235 | 502 ft | 5 kts | 66° |
| 2026-04-30 19:46 | 51.84972 | -8.49165 | 502 ft | 7 kts | 70° |
| 2026-04-30 19:47 | 51.84979 | -8.49136 | 502 ft | 2 kts | 70° |
| 2026-04-30 19:47 | 51.84979 | -8.49134 | 502 ft | 0 kts | 70° |
| 2026-04-30 19:58 | 51.84979 | -8.49135 | 504 ft | 0 kts | 79° |
| 2026-04-30 19:59 | 51.84979 | -8.49134 | 510 ft | 0 kts | 76° |